sensor_id;sensor_type;location;lat;lon;timestamp;temperature;humidity
43581;DHT22;29175;51.030;4.606;2023-12-28T00:01:13;10.50;99.90
43581;DHT22;29175;51.030;4.606;2023-12-28T00:03:43;10.40;99.90
43581;DHT22;29175;51.030;4.606;2023-12-28T00:06:10;10.40;99.90
43581;DHT22;29175;51.030;4.606;2023-12-28T00:08:35;10.30;99.90
43581;DHT22;29175;51.030;4.606;2023-12-28T00:11:02;10.30;99.90
43581;DHT22;29175;51.030;4.606;2023-12-28T00:13:29;10.30;99.90
43581;DHT22;29175;51.030;4.606;2023-12-28T00:15:54;10.30;99.90
43581;DHT22;29175;51.030;4.606;2023-12-28T00:18:22;10.30;99.90
43581;DHT22;29175;51.030;4.606;2023-12-28T00:20:48;10.30;99.90
43581;DHT22;29175;51.030;4.606;2023-12-28T00:23:14;10.30;99.90
43581;DHT22;29175;51.030;4.606;2023-12-28T00:25:40;10.50;99.90
43581;DHT22;29175;51.030;4.606;2023-12-28T00:28:06;10.40;99.90
43581;DHT22;29175;51.030;4.606;2023-12-28T00:30:32;10.40;99.90
43581;DHT22;29175;51.030;4.606;2023-12-28T00:32:59;10.40;99.90
43581;DHT22;29175;51.030;4.606;2023-12-28T00:35:26;10.40;99.90
43581;DHT22;29175;51.030;4.606;2023-12-28T00:37:51;10.50;99.90
43581;DHT22;29175;51.030;4.606;2023-12-28T00:40:17;10.50;99.90
43581;DHT22;29175;51.030;4.606;2023-12-28T00:42:44;10.50;99.90
43581;DHT22;29175;51.030;4.606;2023-12-28T00:45:09;10.50;99.90
43581;DHT22;29175;51.030;4.606;2023-12-28T00:47:37;10.60;99.90
43581;DHT22;29175;51.030;4.606;2023-12-28T00:50:04;10.60;99.90
43581;DHT22;29175;51.030;4.606;2023-12-28T00:52:30;10.60;99.90
43581;DHT22;29175;51.030;4.606;2023-12-28T00:54:55;10.60;99.90
43581;DHT22;29175;51.030;4.606;2023-12-28T00:57:22;10.60;99.90
43581;DHT22;29175;51.030;4.606;2023-12-28T00:59:49;10.50;99.90
43581;DHT22;29175;51.030;4.606;2023-12-28T01:02:15;10.50;99.90
43581;DHT22;29175;51.030;4.606;2023-12-28T01:04:40;10.50;99.90
43581;DHT22;29175;51.030;4.606;2023-12-28T01:07:06;10.60;99.90
43581;DHT22;29175;51.030;4.606;2023-12-28T01:09:32;10.60;99.90
43581;DHT22;29175;51.030;4.606;2023-12-28T01:11:58;10.50;99.90
43581;DHT22;29175;51.030;4.606;2023-12-28T01:14:24;10.50;99.90
43581;DHT22;29175;51.030;4.606;2023-12-28T01:16:50;10.50;99.90
43581;DHT22;29175;51.030;4.606;2023-12-28T01:19:15;10.40;99.90
43581;DHT22;29175;51.030;4.606;2023-12-28T01:21:41;10.50;99.90
43581;DHT22;29175;51.030;4.606;2023-12-28T01:24:07;10.40;99.90
43581;DHT22;29175;51.030;4.606;2023-12-28T01:26:33;10.50;99.90
43581;DHT22;29175;51.030;4.606;2023-12-28T01:29:00;10.40;99.90
43581;DHT22;29175;51.030;4.606;2023-12-28T01:31:29;10.40;99.90
43581;DHT22;29175;51.030;4.606;2023-12-28T01:33:55;10.50;99.90
43581;DHT22;29175;51.030;4.606;2023-12-28T01:36:21;10.50;99.90
43581;DHT22;29175;51.030;4.606;2023-12-28T01:38:47;10.40;99.90
43581;DHT22;29175;51.030;4.606;2023-12-28T01:41:13;10.40;99.90
43581;DHT22;29175;51.030;4.606;2023-12-28T01:43:41;10.30;99.90
43581;DHT22;29175;51.030;4.606;2023-12-28T01:46:06;10.40;99.90
43581;DHT22;29175;51.030;4.606;2023-12-28T01:48:34;10.40;99.90
43581;DHT22;29175;51.030;4.606;2023-12-28T01:51:00;10.40;99.90
43581;DHT22;29175;51.030;4.606;2023-12-28T01:53:26;10.30;99.90
43581;DHT22;29175;51.030;4.606;2023-12-28T01:55:53;10.40;99.90
43581;DHT22;29175;51.030;4.606;2023-12-28T01:58:20;10.50;99.90
43581;DHT22;29175;51.030;4.606;2023-12-28T02:00:45;10.50;99.90
43581;DHT22;29175;51.030;4.606;2023-12-28T02:03:15;10.40;99.90
43581;DHT22;29175;51.030;4.606;2023-12-28T02:05:41;10.50;99.90
43581;DHT22;29175;51.030;4.606;2023-12-28T02:08:06;10.50;99.90
43581;DHT22;29175;51.030;4.606;2023-12-28T02:10:32;10.50;99.90
43581;DHT22;29175;51.030;4.606;2023-12-28T02:12:58;10.60;99.90
43581;DHT22;29175;51.030;4.606;2023-12-28T02:15:24;10.60;99.90
43581;DHT22;29175;51.030;4.606;2023-12-28T02:17:55;10.60;99.90
43581;DHT22;29175;51.030;4.606;2023-12-28T02:20:25;10.50;99.90
43581;DHT22;29175;51.030;4.606;2023-12-28T02:22:55;10.50;99.90
43581;DHT22;29175;51.030;4.606;2023-12-28T02:25:21;10.50;99.90
43581;DHT22;29175;51.030;4.606;2023-12-28T02:30:22;10.50;99.90
43581;DHT22;29175;51.030;4.606;2023-12-28T02:33:08;10.60;99.90
43581;DHT22;29175;51.030;4.606;2023-12-28T02:35:39;10.60;99.90
43581;DHT22;29175;51.030;4.606;2023-12-28T02:38:06;10.70;99.90
43581;DHT22;29175;51.030;4.606;2023-12-28T02:40:37;10.70;99.90
43581;DHT22;29175;51.030;4.606;2023-12-28T02:43:08;10.70;99.90
43581;DHT22;29175;51.030;4.606;2023-12-28T02:45:35;10.80;99.90
43581;DHT22;29175;51.030;4.606;2023-12-28T02:48:01;10.80;99.90
43581;DHT22;29175;51.030;4.606;2023-12-28T02:50:29;10.80;99.90
43581;DHT22;29175;51.030;4.606;2023-12-28T02:52:56;10.90;99.90
43581;DHT22;29175;51.030;4.606;2023-12-28T02:55:22;10.90;99.90
43581;DHT22;29175;51.030;4.606;2023-12-28T02:57:50;10.90;99.90
43581;DHT22;29175;51.030;4.606;2023-12-28T03:00:16;10.90;99.90
43581;DHT22;29175;51.030;4.606;2023-12-28T03:02:42;10.90;99.90
43581;DHT22;29175;51.030;4.606;2023-12-28T03:05:08;10.80;99.90
43581;DHT22;29175;51.030;4.606;2023-12-28T03:07:35;10.80;99.90
43581;DHT22;29175;51.030;4.606;2023-12-28T03:10:02;10.80;99.90
43581;DHT22;29175;51.030;4.606;2023-12-28T03:12:29;10.70;99.90
43581;DHT22;29175;51.030;4.606;2023-12-28T03:14:56;10.80;99.90
43581;DHT22;29175;51.030;4.606;2023-12-28T03:17:22;10.80;99.90
43581;DHT22;29175;51.030;4.606;2023-12-28T03:19:47;10.80;99.90
43581;DHT22;29175;51.030;4.606;2023-12-28T03:22:14;10.80;99.90
43581;DHT22;29175;51.030;4.606;2023-12-28T03:24:40;10.80;99.90
43581;DHT22;29175;51.030;4.606;2023-12-28T03:27:07;10.80;99.90
43581;DHT22;29175;51.030;4.606;2023-12-28T03:29:33;10.80;99.90
43581;DHT22;29175;51.030;4.606;2023-12-28T03:31:59;10.80;99.90
43581;DHT22;29175;51.030;4.606;2023-12-28T03:34:26;10.90;99.90
43581;DHT22;29175;51.030;4.606;2023-12-28T03:36:55;10.80;99.90
43581;DHT22;29175;51.030;4.606;2023-12-28T03:41:50;10.80;99.90
43581;DHT22;29175;51.030;4.606;2023-12-28T03:46:50;10.70;99.90
43581;DHT22;29175;51.030;4.606;2023-12-28T03:49:17;10.70;99.90
43581;DHT22;29175;51.030;4.606;2023-12-28T03:51:44;10.70;99.90
43581;DHT22;29175;51.030;4.606;2023-12-28T03:54:15;10.80;99.90
43581;DHT22;29175;51.030;4.606;2023-12-28T03:56:42;10.80;99.90
43581;DHT22;29175;51.030;4.606;2023-12-28T03:59:08;10.80;99.90
43581;DHT22;29175;51.030;4.606;2023-12-28T04:01:35;10.80;99.90
43581;DHT22;29175;51.030;4.606;2023-12-28T04:04:03;10.80;99.90
43581;DHT22;29175;51.030;4.606;2023-12-28T04:06:30;10.80;99.90
43581;DHT22;29175;51.030;4.606;2023-12-28T04:08:57;10.90;99.90
43581;DHT22;29175;51.030;4.606;2023-12-28T04:11:23;10.80;99.90
43581;DHT22;29175;51.030;4.606;2023-12-28T04:16:17;10.90;99.90
43581;DHT22;29175;51.030;4.606;2023-12-28T04:18:44;10.80;99.90
43581;DHT22;29175;51.030;4.606;2023-12-28T04:21:11;10.80;99.90
43581;DHT22;29175;51.030;4.606;2023-12-28T04:23:40;10.80;99.90
43581;DHT22;29175;51.030;4.606;2023-12-28T04:26:07;10.80;99.90
43581;DHT22;29175;51.030;4.606;2023-12-28T04:28:35;10.80;99.90
43581;DHT22;29175;51.030;4.606;2023-12-28T04:31:04;10.80;99.90
43581;DHT22;29175;51.030;4.606;2023-12-28T04:33:30;10.80;99.90
43581;DHT22;29175;51.030;4.606;2023-12-28T04:35:56;10.80;99.90
43581;DHT22;29175;51.030;4.606;2023-12-28T04:38:22;10.70;99.90
43581;DHT22;29175;51.030;4.606;2023-12-28T04:40:48;10.70;99.90
43581;DHT22;29175;51.030;4.606;2023-12-28T04:43:14;10.80;99.90
43581;DHT22;29175;51.030;4.606;2023-12-28T04:45:40;10.70;99.90
43581;DHT22;29175;51.030;4.606;2023-12-28T04:48:07;10.80;99.90
43581;DHT22;29175;51.030;4.606;2023-12-28T04:50:35;10.90;99.90
43581;DHT22;29175;51.030;4.606;2023-12-28T04:53:01;11.00;99.90
43581;DHT22;29175;51.030;4.606;2023-12-28T04:55:26;11.00;99.90
43581;DHT22;29175;51.030;4.606;2023-12-28T04:57:53;11.00;99.90
43581;DHT22;29175;51.030;4.606;2023-12-28T05:00:19;11.00;99.90
43581;DHT22;29175;51.030;4.606;2023-12-28T05:02:45;11.00;99.90
43581;DHT22;29175;51.030;4.606;2023-12-28T05:05:11;11.00;99.90
43581;DHT22;29175;51.030;4.606;2023-12-28T05:07:37;10.90;99.90
43581;DHT22;29175;51.030;4.606;2023-12-28T05:10:03;10.90;99.90
43581;DHT22;29175;51.030;4.606;2023-12-28T05:12:29;10.80;99.90
43581;DHT22;29175;51.030;4.606;2023-12-28T05:14:56;10.80;99.90
43581;DHT22;29175;51.030;4.606;2023-12-28T05:17:23;10.80;99.90
43581;DHT22;29175;51.030;4.606;2023-12-28T05:19:48;10.80;99.90
43581;DHT22;29175;51.030;4.606;2023-12-28T05:22:14;10.70;99.90
43581;DHT22;29175;51.030;4.606;2023-12-28T05:24:40;10.80;99.90
43581;DHT22;29175;51.030;4.606;2023-12-28T05:27:06;10.70;99.90
43581;DHT22;29175;51.030;4.606;2023-12-28T05:29:32;10.80;99.90
43581;DHT22;29175;51.030;4.606;2023-12-28T05:31:57;10.80;99.90
43581;DHT22;29175;51.030;4.606;2023-12-28T05:34:24;10.90;99.90
43581;DHT22;29175;51.030;4.606;2023-12-28T05:36:51;10.90;99.90
43581;DHT22;29175;51.030;4.606;2023-12-28T05:39:17;10.80;99.90
43581;DHT22;29175;51.030;4.606;2023-12-28T05:41:43;10.80;99.90
43581;DHT22;29175;51.030;4.606;2023-12-28T05:44:13;10.80;99.90
43581;DHT22;29175;51.030;4.606;2023-12-28T05:46:40;10.80;99.90
43581;DHT22;29175;51.030;4.606;2023-12-28T05:49:06;10.80;99.90
43581;DHT22;29175;51.030;4.606;2023-12-28T05:51:41;10.80;99.90
43581;DHT22;29175;51.030;4.606;2023-12-28T05:54:07;10.80;99.90
43581;DHT22;29175;51.030;4.606;2023-12-28T05:56:34;10.80;99.90
43581;DHT22;29175;51.030;4.606;2023-12-28T05:59:06;10.80;99.90
43581;DHT22;29175;51.030;4.606;2023-12-28T06:01:32;10.80;99.90
43581;DHT22;29175;51.030;4.606;2023-12-28T06:03:58;10.70;99.90
43581;DHT22;29175;51.030;4.606;2023-12-28T06:06:25;10.60;99.90
43581;DHT22;29175;51.030;4.606;2023-12-28T06:08:52;10.60;99.90
43581;DHT22;29175;51.030;4.606;2023-12-28T06:11:18;10.60;99.90
43581;DHT22;29175;51.030;4.606;2023-12-28T06:13:44;10.50;99.90
43581;DHT22;29175;51.030;4.606;2023-12-28T06:18:39;10.50;99.90
43581;DHT22;29175;51.030;4.606;2023-12-28T06:21:05;10.50;99.90
43581;DHT22;29175;51.030;4.606;2023-12-28T06:23:33;10.40;99.90
43581;DHT22;29175;51.030;4.606;2023-12-28T06:26:04;10.40;99.90
43581;DHT22;29175;51.030;4.606;2023-12-28T06:28:30;10.40;99.90
43581;DHT22;29175;51.030;4.606;2023-12-28T06:30:57;10.40;99.90
43581;DHT22;29175;51.030;4.606;2023-12-28T06:33:26;10.40;99.90
43581;DHT22;29175;51.030;4.606;2023-12-28T06:35:53;10.30;99.90
43581;DHT22;29175;51.030;4.606;2023-12-28T06:38:18;10.30;99.90
43581;DHT22;29175;51.030;4.606;2023-12-28T06:40:44;10.40;99.90
43581;DHT22;29175;51.030;4.606;2023-12-28T06:43:09;10.30;99.90
43581;DHT22;29175;51.030;4.606;2023-12-28T06:45:36;10.30;99.90
43581;DHT22;29175;51.030;4.606;2023-12-28T06:48:02;10.30;99.90
43581;DHT22;29175;51.030;4.606;2023-12-28T06:50:28;10.30;99.90
43581;DHT22;29175;51.030;4.606;2023-12-28T06:52:55;10.30;99.90
43581;DHT22;29175;51.030;4.606;2023-12-28T06:55:21;10.20;99.90
43581;DHT22;29175;51.030;4.606;2023-12-28T06:57:48;10.10;99.90
43581;DHT22;29175;51.030;4.606;2023-12-28T07:00:15;10.10;99.90
43581;DHT22;29175;51.030;4.606;2023-12-28T07:02:41;10.20;99.90
43581;DHT22;29175;51.030;4.606;2023-12-28T07:05:07;10.20;99.90
43581;DHT22;29175;51.030;4.606;2023-12-28T07:07:35;10.30;99.90
43581;DHT22;29175;51.030;4.606;2023-12-28T07:10:02;10.10;99.90
43581;DHT22;29175;51.030;4.606;2023-12-28T07:12:30;10.00;99.90
43581;DHT22;29175;51.030;4.606;2023-12-28T07:14:56;10.00;99.90
43581;DHT22;29175;51.030;4.606;2023-12-28T07:17:23;10.00;99.90
43581;DHT22;29175;51.030;4.606;2023-12-28T07:19:49;10.00;99.90
43581;DHT22;29175;51.030;4.606;2023-12-28T07:22:15;10.10;99.90
43581;DHT22;29175;51.030;4.606;2023-12-28T07:24:43;10.20;99.90
43581;DHT22;29175;51.030;4.606;2023-12-28T07:27:08;10.10;99.90
43581;DHT22;29175;51.030;4.606;2023-12-28T07:29:35;10.20;99.90
43581;DHT22;29175;51.030;4.606;2023-12-28T07:32:03;10.10;99.90
43581;DHT22;29175;51.030;4.606;2023-12-28T07:34:31;10.10;99.90
43581;DHT22;29175;51.030;4.606;2023-12-28T07:36:58;10.10;99.90
43581;DHT22;29175;51.030;4.606;2023-12-28T07:39:23;10.20;99.90
43581;DHT22;29175;51.030;4.606;2023-12-28T07:41:50;10.10;99.90
43581;DHT22;29175;51.030;4.606;2023-12-28T07:44:16;10.00;99.90
43581;DHT22;29175;51.030;4.606;2023-12-28T07:46:44;10.00;99.90
43581;DHT22;29175;51.030;4.606;2023-12-28T07:49:10;10.00;99.90
43581;DHT22;29175;51.030;4.606;2023-12-28T07:51:35;10.10;99.90
43581;DHT22;29175;51.030;4.606;2023-12-28T07:54:01;9.90;99.90
43581;DHT22;29175;51.030;4.606;2023-12-28T07:56:27;10.00;99.90
43581;DHT22;29175;51.030;4.606;2023-12-28T07:58:53;10.00;99.90
43581;DHT22;29175;51.030;4.606;2023-12-28T08:01:21;10.10;99.90
43581;DHT22;29175;51.030;4.606;2023-12-28T08:03:47;10.10;99.90
43581;DHT22;29175;51.030;4.606;2023-12-28T08:06:13;10.10;99.90
43581;DHT22;29175;51.030;4.606;2023-12-28T08:08:39;10.10;99.90
43581;DHT22;29175;51.030;4.606;2023-12-28T08:11:08;10.10;99.90
43581;DHT22;29175;51.030;4.606;2023-12-28T08:13:34;10.10;99.90
43581;DHT22;29175;51.030;4.606;2023-12-28T08:16:01;10.10;99.90
43581;DHT22;29175;51.030;4.606;2023-12-28T08:18:28;10.10;99.90
43581;DHT22;29175;51.030;4.606;2023-12-28T08:20:54;10.20;99.90
43581;DHT22;29175;51.030;4.606;2023-12-28T08:23:20;10.30;99.90
43581;DHT22;29175;51.030;4.606;2023-12-28T08:25:47;10.30;99.90
43581;DHT22;29175;51.030;4.606;2023-12-28T08:28:13;10.40;99.90
43581;DHT22;29175;51.030;4.606;2023-12-28T08:30:39;10.40;99.90
43581;DHT22;29175;51.030;4.606;2023-12-28T08:33:06;10.40;99.90
43581;DHT22;29175;51.030;4.606;2023-12-28T08:35:31;10.50;99.90
43581;DHT22;29175;51.030;4.606;2023-12-28T08:37:57;10.60;99.90
43581;DHT22;29175;51.030;4.606;2023-12-28T08:40:22;10.60;99.90
43581;DHT22;29175;51.030;4.606;2023-12-28T08:42:48;10.60;99.90
43581;DHT22;29175;51.030;4.606;2023-12-28T08:45:13;10.70;99.90
43581;DHT22;29175;51.030;4.606;2023-12-28T08:47:40;10.80;99.90
43581;DHT22;29175;51.030;4.606;2023-12-28T08:50:06;10.80;99.90
43581;DHT22;29175;51.030;4.606;2023-12-28T08:52:31;10.90;99.90
43581;DHT22;29175;51.030;4.606;2023-12-28T08:54:57;10.90;99.90
43581;DHT22;29175;51.030;4.606;2023-12-28T08:57:22;10.90;99.90
43581;DHT22;29175;51.030;4.606;2023-12-28T08:59:48;10.90;99.90
43581;DHT22;29175;51.030;4.606;2023-12-28T09:02:14;11.00;99.90
43581;DHT22;29175;51.030;4.606;2023-12-28T09:04:39;11.00;99.90
43581;DHT22;29175;51.030;4.606;2023-12-28T09:07:07;11.00;99.90
43581;DHT22;29175;51.030;4.606;2023-12-28T09:09:32;11.00;99.90
43581;DHT22;29175;51.030;4.606;2023-12-28T09:11:59;11.10;99.90
43581;DHT22;29175;51.030;4.606;2023-12-28T09:14:25;11.10;99.90
43581;DHT22;29175;51.030;4.606;2023-12-28T09:16:53;11.00;99.90
43581;DHT22;29175;51.030;4.606;2023-12-28T09:19:19;11.00;99.90
43581;DHT22;29175;51.030;4.606;2023-12-28T09:21:45;11.00;99.90
43581;DHT22;29175;51.030;4.606;2023-12-28T09:24:11;11.00;99.90
43581;DHT22;29175;51.030;4.606;2023-12-28T09:26:37;10.90;99.90
43581;DHT22;29175;51.030;4.606;2023-12-28T09:29:02;11.00;99.90
43581;DHT22;29175;51.030;4.606;2023-12-28T09:31:29;11.00;99.90
43581;DHT22;29175;51.030;4.606;2023-12-28T09:33:54;11.10;99.90
43581;DHT22;29175;51.030;4.606;2023-12-28T09:36:20;11.10;99.90
43581;DHT22;29175;51.030;4.606;2023-12-28T09:38:46;11.20;99.90
43581;DHT22;29175;51.030;4.606;2023-12-28T09:41:13;11.20;99.90
43581;DHT22;29175;51.030;4.606;2023-12-28T09:46:25;11.40;99.90
43581;DHT22;29175;51.030;4.606;2023-12-28T09:48:52;11.40;99.90
43581;DHT22;29175;51.030;4.606;2023-12-28T09:51:20;11.40;99.90
43581;DHT22;29175;51.030;4.606;2023-12-28T09:53:47;11.40;99.90
43581;DHT22;29175;51.030;4.606;2023-12-28T09:56:13;11.50;99.90
43581;DHT22;29175;51.030;4.606;2023-12-28T09:58:45;11.40;99.90
43581;DHT22;29175;51.030;4.606;2023-12-28T10:01:14;11.40;99.90
43581;DHT22;29175;51.030;4.606;2023-12-28T10:03:41;11.40;99.90
43581;DHT22;29175;51.030;4.606;2023-12-28T10:06:09;11.40;99.90
43581;DHT22;29175;51.030;4.606;2023-12-28T10:08:36;11.40;99.90
43581;DHT22;29175;51.030;4.606;2023-12-28T10:11:02;11.50;99.90
43581;DHT22;29175;51.030;4.606;2023-12-28T10:13:32;11.40;99.90
43581;DHT22;29175;51.030;4.606;2023-12-28T10:15:59;11.50;99.90
43581;DHT22;29175;51.030;4.606;2023-12-28T10:18:25;11.50;99.90
43581;DHT22;29175;51.030;4.606;2023-12-28T10:23:21;11.70;99.90
43581;DHT22;29175;51.030;4.606;2023-12-28T10:25:47;11.60;99.90
43581;DHT22;29175;51.030;4.606;2023-12-28T10:28:15;11.60;99.90
43581;DHT22;29175;51.030;4.606;2023-12-28T10:30:44;11.70;99.90
43581;DHT22;29175;51.030;4.606;2023-12-28T10:33:09;11.70;99.90
43581;DHT22;29175;51.030;4.606;2023-12-28T10:35:35;11.70;99.90
43581;DHT22;29175;51.030;4.606;2023-12-28T10:38:01;11.70;99.90
43581;DHT22;29175;51.030;4.606;2023-12-28T10:40:28;11.60;99.90
43581;DHT22;29175;51.030;4.606;2023-12-28T10:43:01;11.60;99.90
43581;DHT22;29175;51.030;4.606;2023-12-28T10:45:28;11.60;99.90
43581;DHT22;29175;51.030;4.606;2023-12-28T10:50:21;11.70;99.90
43581;DHT22;29175;51.030;4.606;2023-12-28T10:52:48;11.70;99.90
43581;DHT22;29175;51.030;4.606;2023-12-28T11:00:16;12.00;99.90
43581;DHT22;29175;51.030;4.606;2023-12-28T11:02:45;12.10;99.90
43581;DHT22;29175;51.030;4.606;2023-12-28T11:05:15;12.00;99.90
43581;DHT22;29175;51.030;4.606;2023-12-28T11:07:40;12.00;99.90
43581;DHT22;29175;51.030;4.606;2023-12-28T11:10:07;12.00;99.90
43581;DHT22;29175;51.030;4.606;2023-12-28T11:12:35;12.10;99.90
43581;DHT22;29175;51.030;4.606;2023-12-28T11:15:02;12.10;99.90
43581;DHT22;29175;51.030;4.606;2023-12-28T11:17:29;12.10;99.90
43581;DHT22;29175;51.030;4.606;2023-12-28T11:19:55;12.10;99.90
43581;DHT22;29175;51.030;4.606;2023-12-28T11:22:22;12.10;99.90
43581;DHT22;29175;51.030;4.606;2023-12-28T11:24:49;12.10;99.90
43581;DHT22;29175;51.030;4.606;2023-12-28T11:27:18;12.10;99.90
43581;DHT22;29175;51.030;4.606;2023-12-28T11:29:44;12.00;99.90
43581;DHT22;29175;51.030;4.606;2023-12-28T11:32:10;12.00;99.90
43581;DHT22;29175;51.030;4.606;2023-12-28T11:34:36;12.10;99.90
43581;DHT22;29175;51.030;4.606;2023-12-28T11:37:08;12.10;99.90
43581;DHT22;29175;51.030;4.606;2023-12-28T11:39:35;12.10;99.90
43581;DHT22;29175;51.030;4.606;2023-12-28T11:42:07;12.20;99.90
43581;DHT22;29175;51.030;4.606;2023-12-28T11:44:37;12.20;99.90
43581;DHT22;29175;51.030;4.606;2023-12-28T11:47:10;12.30;99.90
43581;DHT22;29175;51.030;4.606;2023-12-28T11:49:36;12.30;99.90
43581;DHT22;29175;51.030;4.606;2023-12-28T11:52:02;12.30;99.90
43581;DHT22;29175;51.030;4.606;2023-12-28T11:54:30;12.30;99.90
43581;DHT22;29175;51.030;4.606;2023-12-28T11:56:55;12.20;99.90
43581;DHT22;29175;51.030;4.606;2023-12-28T11:59:21;12.20;99.90
43581;DHT22;29175;51.030;4.606;2023-12-28T12:01:50;12.20;99.90
43581;DHT22;29175;51.030;4.606;2023-12-28T12:04:17;12.20;99.90
43581;DHT22;29175;51.030;4.606;2023-12-28T12:06:42;12.20;99.90
43581;DHT22;29175;51.030;4.606;2023-12-28T12:09:08;12.20;99.90
43581;DHT22;29175;51.030;4.606;2023-12-28T12:11:36;12.10;99.90
43581;DHT22;29175;51.030;4.606;2023-12-28T12:14:03;12.10;99.90
43581;DHT22;29175;51.030;4.606;2023-12-28T12:16:31;12.20;99.90
43581;DHT22;29175;51.030;4.606;2023-12-28T12:18:57;12.20;99.90
43581;DHT22;29175;51.030;4.606;2023-12-28T12:21:23;12.10;99.90
43581;DHT22;29175;51.030;4.606;2023-12-28T12:23:49;12.10;99.90
43581;DHT22;29175;51.030;4.606;2023-12-28T12:26:17;12.10;99.90
43581;DHT22;29175;51.030;4.606;2023-12-28T12:28:43;12.20;99.90
43581;DHT22;29175;51.030;4.606;2023-12-28T12:31:10;12.20;99.90
43581;DHT22;29175;51.030;4.606;2023-12-28T12:33:36;12.30;99.90
43581;DHT22;29175;51.030;4.606;2023-12-28T12:36:03;12.30;99.90
43581;DHT22;29175;51.030;4.606;2023-12-28T12:38:31;12.20;99.90
43581;DHT22;29175;51.030;4.606;2023-12-28T12:40:58;12.20;99.90
43581;DHT22;29175;51.030;4.606;2023-12-28T12:43:23;12.30;99.90
43581;DHT22;29175;51.030;4.606;2023-12-28T12:45:50;12.30;99.90
43581;DHT22;29175;51.030;4.606;2023-12-28T12:48:15;12.50;99.90
43581;DHT22;29175;51.030;4.606;2023-12-28T12:50:41;12.40;99.90
43581;DHT22;29175;51.030;4.606;2023-12-28T12:53:06;12.20;99.90
43581;DHT22;29175;51.030;4.606;2023-12-28T12:55:33;12.20;99.90
43581;DHT22;29175;51.030;4.606;2023-12-28T12:57:58;12.20;99.90
43581;DHT22;29175;51.030;4.606;2023-12-28T13:00:24;12.20;99.90
43581;DHT22;29175;51.030;4.606;2023-12-28T13:02:50;12.20;99.90
43581;DHT22;29175;51.030;4.606;2023-12-28T13:05:17;12.20;99.90
43581;DHT22;29175;51.030;4.606;2023-12-28T13:07:43;12.10;99.90
43581;DHT22;29175;51.030;4.606;2023-12-28T13:10:09;12.10;99.90
43581;DHT22;29175;51.030;4.606;2023-12-28T13:12:36;12.10;99.90
43581;DHT22;29175;51.030;4.606;2023-12-28T13:15:01;12.10;99.90
43581;DHT22;29175;51.030;4.606;2023-12-28T13:17:27;12.10;99.90
43581;DHT22;29175;51.030;4.606;2023-12-28T13:19:52;12.10;99.90
43581;DHT22;29175;51.030;4.606;2023-12-28T13:22:18;12.10;99.90
43581;DHT22;29175;51.030;4.606;2023-12-28T13:24:44;12.10;99.90
43581;DHT22;29175;51.030;4.606;2023-12-28T13:27:11;12.00;99.90
43581;DHT22;29175;51.030;4.606;2023-12-28T13:29:36;12.00;99.90
43581;DHT22;29175;51.030;4.606;2023-12-28T13:32:02;11.90;99.90
43581;DHT22;29175;51.030;4.606;2023-12-28T13:34:29;11.90;99.90
43581;DHT22;29175;51.030;4.606;2023-12-28T13:36:54;11.90;99.90
43581;DHT22;29175;51.030;4.606;2023-12-28T13:39:20;11.90;99.90
43581;DHT22;29175;51.030;4.606;2023-12-28T13:41:45;11.90;99.90
43581;DHT22;29175;51.030;4.606;2023-12-28T13:44:11;11.90;99.90
43581;DHT22;29175;51.030;4.606;2023-12-28T13:46:40;11.90;99.90
43581;DHT22;29175;51.030;4.606;2023-12-28T13:49:06;11.90;99.90
43581;DHT22;29175;51.030;4.606;2023-12-28T13:51:35;11.90;99.90
43581;DHT22;29175;51.030;4.606;2023-12-28T13:54:00;12.00;99.90
43581;DHT22;29175;51.030;4.606;2023-12-28T13:56:26;11.90;99.90
43581;DHT22;29175;51.030;4.606;2023-12-28T13:58:51;11.90;99.90
43581;DHT22;29175;51.030;4.606;2023-12-28T14:01:17;11.80;99.90
43581;DHT22;29175;51.030;4.606;2023-12-28T14:03:43;11.90;99.90
43581;DHT22;29175;51.030;4.606;2023-12-28T14:06:10;11.70;99.90
43581;DHT22;29175;51.030;4.606;2023-12-28T14:08:36;11.80;99.90
43581;DHT22;29175;51.030;4.606;2023-12-28T14:11:02;11.70;99.90
43581;DHT22;29175;51.030;4.606;2023-12-28T14:13:27;11.80;99.90
43581;DHT22;29175;51.030;4.606;2023-12-28T14:15:54;11.70;99.90
43581;DHT22;29175;51.030;4.606;2023-12-28T14:18:19;11.60;99.90
43581;DHT22;29175;51.030;4.606;2023-12-28T14:20:45;11.60;99.90
43581;DHT22;29175;51.030;4.606;2023-12-28T14:23:11;11.60;99.90
43581;DHT22;29175;51.030;4.606;2023-12-28T14:25:37;11.70;99.90
43581;DHT22;29175;51.030;4.606;2023-12-28T14:28:03;11.60;99.90
43581;DHT22;29175;51.030;4.606;2023-12-28T14:30:29;11.60;99.90
43581;DHT22;29175;51.030;4.606;2023-12-28T14:32:55;11.50;99.90
43581;DHT22;29175;51.030;4.606;2023-12-28T14:35:20;11.50;99.90
43581;DHT22;29175;51.030;4.606;2023-12-28T14:37:46;11.50;99.90
43581;DHT22;29175;51.030;4.606;2023-12-28T14:40:12;11.50;99.90
43581;DHT22;29175;51.030;4.606;2023-12-28T14:42:38;11.60;99.90
43581;DHT22;29175;51.030;4.606;2023-12-28T14:45:03;11.50;99.90
43581;DHT22;29175;51.030;4.606;2023-12-28T14:47:29;11.50;99.90
43581;DHT22;29175;51.030;4.606;2023-12-28T14:49:55;11.50;99.90
43581;DHT22;29175;51.030;4.606;2023-12-28T14:52:21;11.50;99.90
43581;DHT22;29175;51.030;4.606;2023-12-28T14:54:46;11.50;99.90
43581;DHT22;29175;51.030;4.606;2023-12-28T14:57:12;11.50;99.90
43581;DHT22;29175;51.030;4.606;2023-12-28T14:59:37;11.40;99.90
43581;DHT22;29175;51.030;4.606;2023-12-28T15:02:03;11.40;99.90
43581;DHT22;29175;51.030;4.606;2023-12-28T15:04:29;11.40;99.90
43581;DHT22;29175;51.030;4.606;2023-12-28T15:06:54;11.30;99.90
43581;DHT22;29175;51.030;4.606;2023-12-28T15:09:20;11.20;99.90
43581;DHT22;29175;51.030;4.606;2023-12-28T15:11:46;11.30;99.90
43581;DHT22;29175;51.030;4.606;2023-12-28T15:14:11;11.40;99.90
43581;DHT22;29175;51.030;4.606;2023-12-28T15:16:38;11.30;99.90
43581;DHT22;29175;51.030;4.606;2023-12-28T15:19:04;11.30;99.90
43581;DHT22;29175;51.030;4.606;2023-12-28T15:21:30;11.20;99.90
43581;DHT22;29175;51.030;4.606;2023-12-28T15:23:55;11.20;99.90
43581;DHT22;29175;51.030;4.606;2023-12-28T15:26:22;11.20;99.90
43581;DHT22;29175;51.030;4.606;2023-12-28T15:28:48;11.20;99.90
43581;DHT22;29175;51.030;4.606;2023-12-28T15:31:17;11.10;99.90
43581;DHT22;29175;51.030;4.606;2023-12-28T15:33:42;11.10;99.90
43581;DHT22;29175;51.030;4.606;2023-12-28T15:36:09;11.10;99.90
43581;DHT22;29175;51.030;4.606;2023-12-28T15:38:34;11.00;99.90
43581;DHT22;29175;51.030;4.606;2023-12-28T15:41:01;11.10;99.90
43581;DHT22;29175;51.030;4.606;2023-12-28T15:43:27;11.10;99.90
43581;DHT22;29175;51.030;4.606;2023-12-28T15:45:52;11.00;99.90
43581;DHT22;29175;51.030;4.606;2023-12-28T15:48:19;10.90;99.90
43581;DHT22;29175;51.030;4.606;2023-12-28T15:50:44;11.00;99.90